Time,TemperatureF,DewpointF,PressureIn,WindDirection,WindDirectionDegrees,WindSpeedMPH,WindSpeedGustMPH,Humidity,HourlyPrecipIn,Conditions,Clouds,dailyrainin,SoftwareType,DateUTC
2013-01-13 08:35:00,-3.7,-11.0,30.52,SSW,202,1.0,5.0,70,0.00,,---,0.00,VWS V14.01,2013-01-13 15:35:00,
2013-01-13 08:48:00,-2.5,-9.9,30.52,SSW,211,0.0,1.0,70,0.00,,---,0.00,VWS V14.01,2013-01-13 15:48:00,
2013-01-13 08:50:00,-2.2,-9.9,30.50,SSW,211,0.0,1.0,69,0.00,,---,0.00,VWS V14.01,2013-01-13 15:50:00,
2013-01-13 08:55:00,-1.4,-9.1,30.50,SSW,211,0.0,0.0,69,0.00,,---,0.00,VWS V14.01,2013-01-13 15:55:00,
2013-01-13 09:00:00,-0.6,-8.6,30.50,SSW,211,1.0,1.0,68,0.00,,---,0.00,VWS V14.01,2013-01-13 16:00:00,
2013-01-13 09:05:00,0.4,-7.7,30.48,SSW,211,0.0,4.0,68,0.00,,---,0.00,VWS V14.01,2013-01-13 16:05:00,
2013-01-13 09:10:00,1.0,-7.7,30.48,SSW,211,0.0,1.0,66,0.00,,---,0.00,VWS V14.01,2013-01-13 16:10:00,
2013-01-13 09:15:00,0.8,-8.2,30.48,SSW,211,3.0,5.0,65,0.00,,---,0.00,VWS V14.01,2013-01-13 16:15:00,
2013-01-13 09:20:00,0.1,-8.9,30.50,SSW,211,1.0,1.0,65,0.00,,---,0.00,VWS V14.01,2013-01-13 16:20:00,
2013-01-13 09:25:00,-0.1,-9.0,30.50,SSW,210,0.0,2.0,65,0.00,,---,0.00,VWS V14.01,2013-01-13 16:25:00,
2013-01-13 09:30:00,0.3,-8.7,30.50,SSW,212,0.0,8.0,65,0.00,,---,0.00,VWS V14.01,2013-01-13 16:30:00,
2013-01-13 09:35:00,1.2,-7.5,30.48,SSW,212,1.0,5.0,66,0.00,,---,0.00,VWS V14.01,2013-01-13 16:35:00,
2013-01-13 09:40:00,2.4,-6.3,30.48,SSW,211,0.0,2.0,66,0.00,,---,0.00,VWS V14.01,2013-01-13 16:40:00,
2013-01-13 09:45:00,3.5,-5.6,30.46,SSW,212,0.0,5.0,65,0.00,,---,0.00,VWS V14.01,2013-01-13 16:45:00,
2013-01-13 09:50:00,4.6,-4.6,30.46,SSW,211,7.0,7.0,65,0.00,,---,0.00,VWS V14.01,2013-01-13 16:50:00,
2013-01-13 09:55:00,5.5,-4.3,30.45,SSW,205,0.0,7.0,63,0.00,,---,0.00,VWS V14.01,2013-01-13 16:55:00,
2013-01-13 10:00:00,6.6,-3.3,30.43,SSW,205,1.0,2.0,63,0.00,,---,0.00,VWS V14.01,2013-01-13 17:00:00,
2013-01-13 10:05:00,7.4,-3.2,30.43,SSW,205,0.0,4.0,61,0.00,,---,0.00,VWS V14.01,2013-01-13 17:05:00,
2013-01-13 10:10:00,8.3,-2.7,30.43,SSW,205,5.0,6.0,60,0.00,,---,0.00,VWS V14.01,2013-01-13 17:10:00,
2013-01-13 10:15:00,9.1,-2.0,30.42,SSW,205,0.0,5.0,60,0.00,,---,0.00,VWS V14.01,2013-01-13 17:15:00,
2013-01-13 10:20:00,9.9,-1.9,30.40,SSW,205,0.0,3.0,58,0.00,,---,0.00,VWS V14.01,2013-01-13 17:20:00,
2013-01-13 10:25:00,10.8,-2.6,30.40,SSW,204,0.0,0.0,54,0.00,,---,0.00,VWS V14.01,2013-01-13 17:25:00,
2013-01-13 10:30:00,11.4,-2.4,30.40,SSW,204,0.0,0.0,53,0.00,,---,0.00,VWS V14.01,2013-01-13 17:30:00,
2013-01-13 10:35:00,12.4,-2.7,30.37,SSW,204,0.0,0.0,50,0.00,,---,0.00,VWS V14.01,2013-01-13 17:35:00,
2013-01-13 10:40:00,13.1,-2.9,30.37,SSW,203,0.0,1.0,48,0.00,,---,0.00,VWS V14.01,2013-01-13 17:40:00,
2013-01-13 10:45:00,13.2,-4.2,30.37,SSW,204,0.0,0.0,45,0.00,,---,0.00,VWS V14.01,2013-01-13 17:45:00,
2013-01-13 10:50:00,13.1,-4.7,30.37,SSW,203,0.0,0.0,44,0.00,,---,0.00,VWS V14.01,2013-01-13 17:50:00,
2013-01-13 10:56:00,13.0,-5.3,30.37,SSW,204,1.0,4.0,43,0.00,,---,0.00,VWS V14.01,2013-01-13 17:56:00,
2013-01-13 11:01:00,12.7,-5.1,30.37,SSW,203,0.0,0.0,44,0.00,,---,0.00,VWS V14.01,2013-01-13 18:01:00,
2013-01-13 11:06:00,13.0,-4.8,30.36,SSW,204,1.0,1.0,44,0.00,,---,0.00,VWS V14.01,2013-01-13 18:06:00,
2013-01-13 11:11:00,13.5,-4.3,30.38,SSW,204,4.0,7.0,44,0.00,,---,0.00,VWS V14.01,2013-01-13 18:11:00,
2013-01-13 11:16:00,13.7,-5.1,30.36,SSW,204,4.0,4.0,42,0.00,,---,0.00,VWS V14.01,2013-01-13 18:16:00,
2013-01-13 11:21:00,14.0,-5.9,30.35,SSW,203,0.0,2.0,40,0.00,,---,0.00,VWS V14.01,2013-01-13 18:21:00,
2013-01-13 11:26:00,14.6,-4.8,30.35,SSW,203,1.0,4.0,41,0.00,,---,0.00,VWS V14.01,2013-01-13 18:26:00,
2013-01-13 11:31:00,15.5,-3.5,30.35,SSW,196,5.0,7.0,42,0.00,,---,0.00,VWS V14.01,2013-01-13 18:31:00,
2013-01-13 11:36:00,15.5,-3.5,30.33,SSW,198,6.0,6.0,42,0.00,,---,0.00,VWS V14.01,2013-01-13 18:36:00,
2013-01-13 11:41:00,15.3,-4.2,30.34,SSW,193,7.0,7.0,41,0.00,,---,0.00,VWS V14.01,2013-01-13 18:41:00,
2013-01-13 11:46:00,15.8,-3.7,30.32,SSW,192,4.0,4.0,41,0.00,,---,0.00,VWS V14.01,2013-01-13 18:46:00,
2013-01-13 11:51:00,16.4,-2.7,30.32,SSW,192,4.0,6.0,42,0.00,,---,0.00,VWS V14.01,2013-01-13 18:51:00,
2013-01-13 11:56:00,15.7,-4.3,30.31,SSW,194,0.0,6.0,40,0.00,,---,0.00,VWS V14.01,2013-01-13 18:56:00,
2013-01-13 12:01:00,15.2,-3.8,30.33,SSW,192,7.0,7.0,42,0.00,,---,0.00,VWS V14.01,2013-01-13 19:01:00,
2013-01-13 12:06:00,14.7,-4.2,30.33,South,191,7.0,7.0,42,0.00,,---,0.00,VWS V14.01,2013-01-13 19:06:00,
2013-01-13 12:11:00,14.5,-4.4,30.26,South,190,1.0,1.0,42,0.00,,---,0.00,VWS V14.01,2013-01-13 19:11:00,
2013-01-13 12:16:00,15.1,-3.8,30.26,SSW,196,8.0,8.0,42,0.00,,---,0.00,VWS V14.01,2013-01-13 19:16:00,
2013-01-13 12:21:00,15.3,-4.7,30.26,SSW,193,1.0,1.0,40,0.00,,---,0.00,VWS V14.01,2013-01-13 19:21:00,
2013-01-13 12:26:00,15.7,-5.4,30.26,SSW,194,2.0,5.0,38,0.00,,---,0.00,VWS V14.01,2013-01-13 19:26:00,
2013-01-13 12:31:00,15.6,-6.6,30.26,South,186,4.0,4.0,36,0.00,,---,0.00,VWS V14.01,2013-01-13 19:31:00,
2013-01-13 12:36:00,15.5,-6.1,30.25,South,186,2.0,2.0,37,0.00,,---,0.00,VWS V14.01,2013-01-13 19:36:00,
2013-01-13 12:41:00,14.9,-7.2,30.26,South,190,4.0,5.0,36,0.00,,---,0.00,VWS V14.01,2013-01-13 19:41:00,
2013-01-13 12:46:00,14.5,-7.0,30.25,South,190,5.0,6.0,37,0.00,,---,0.00,VWS V14.01,2013-01-13 19:46:00,
2013-01-13 12:51:00,14.1,-9.1,30.27,South,190,7.0,7.0,34,0.00,,---,0.00,VWS V14.01,2013-01-13 19:51:00,
2013-01-13 12:56:00,14.2,-8.4,30.27,South,190,2.0,6.0,35,0.00,,---,0.00,VWS V14.01,2013-01-13 19:56:00,
2013-01-13 13:01:00,14.3,-8.3,30.27,South,190,2.0,4.0,35,0.00,,---,0.00,VWS V14.01,2013-01-13 20:01:00,
2013-01-13 13:06:00,14.4,-8.8,30.31,South,190,0.0,4.0,34,0.00,,---,0.00,VWS V14.01,2013-01-13 20:06:00,
2013-01-13 13:11:00,14.5,-8.7,30.29,South,190,4.0,7.0,34,0.00,,---,0.00,VWS V14.01,2013-01-13 20:11:00,
2013-01-13 13:17:00,14.3,-8.9,30.29,SW,223,0.0,9.0,34,0.00,,---,0.00,VWS V14.01,2013-01-13 20:17:00,
2013-01-13 13:22:00,14.3,-8.9,30.31,WSW,250,3.0,14.0,34,0.00,,---,0.00,VWS V14.01,2013-01-13 20:22:00,
2013-01-13 13:27:00,14.3,-8.9,30.31,WSW,252,0.0,3.0,34,0.00,,---,0.00,VWS V14.01,2013-01-13 20:27:00,
2013-01-13 13:32:00,14.7,-8.6,30.29,WSW,251,3.0,4.0,34,0.00,,---,0.00,VWS V14.01,2013-01-13 20:32:00,
2013-01-13 13:37:00,14.9,-9.0,30.29,WSW,252,1.0,5.0,33,0.00,,---,0.00,VWS V14.01,2013-01-13 20:37:00,
2013-01-13 13:42:00,14.9,-7.8,30.29,WSW,251,3.0,3.0,35,0.00,,---,0.00,VWS V14.01,2013-01-13 20:42:00,
2013-01-13 13:47:00,14.9,-8.4,30.29,WSW,251,3.0,3.0,34,0.00,,---,0.00,VWS V14.01,2013-01-13 20:47:00,
2013-01-13 13:52:00,15.2,-7.5,30.29,WSW,251,0.0,0.0,35,0.00,,---,0.00,VWS V14.01,2013-01-13 20:52:00,
2013-01-13 13:57:00,15.4,-7.9,30.29,WSW,251,0.0,1.0,34,0.00,,---,0.00,VWS V14.01,2013-01-13 20:57:00,
2013-01-13 14:02:00,15.1,-8.2,30.29,WSW,251,0.0,2.0,34,0.00,,---,0.00,VWS V14.01,2013-01-13 21:02:00,
2013-01-13 14:07:00,14.9,-7.8,30.33,WSW,252,0.0,1.0,35,0.00,,---,0.00,VWS V14.01,2013-01-13 21:07:00,
2013-01-13 14:12:00,14.8,-7.3,30.33,WSW,251,0.0,2.0,36,0.00,,---,0.00,VWS V14.01,2013-01-13 21:12:00,
2013-01-13 14:17:00,14.6,-7.5,30.33,SW,219,2.0,3.0,36,0.00,,---,0.00,VWS V14.01,2013-01-13 21:17:00,
2013-01-13 14:22:00,14.6,-7.5,30.33,SW,217,1.0,2.0,36,0.00,,---,0.00,VWS V14.01,2013-01-13 21:22:00,
2013-01-13 14:27:00,14.6,-7.5,30.34,SW,215,0.0,1.0,36,0.00,,---,0.00,VWS V14.01,2013-01-13 21:27:00,
2013-01-13 14:32:00,14.7,-7.4,30.34,SW,215,2.0,2.0,36,0.00,,---,0.00,VWS V14.01,2013-01-13 21:32:00,
2013-01-13 14:37:00,15.0,-6.6,30.33,SW,215,0.0,1.0,37,0.00,,---,0.00,VWS V14.01,2013-01-13 21:37:00,
2013-01-13 14:42:00,15.2,-6.9,30.33,SW,215,0.0,0.0,36,0.00,,---,0.00,VWS V14.01,2013-01-13 21:42:00,
2013-01-13 14:47:00,15.1,-5.4,30.34,SSW,211,0.0,4.0,39,0.00,,---,0.00,VWS V14.01,2013-01-13 21:47:00,
2013-01-13 14:52:00,15.0,-5.0,30.34,SSW,209,0.0,2.0,40,0.00,,---,0.00,VWS V14.01,2013-01-13 21:52:00,
2013-01-13 14:57:00,14.9,-4.5,30.33,SSW,207,0.0,2.0,41,0.00,,---,0.00,VWS V14.01,2013-01-13 21:57:00,
2013-01-13 15:02:00,14.6,-4.8,30.33,SSW,199,0.0,2.0,41,0.00,,---,0.00,VWS V14.01,2013-01-13 22:02:00,
2013-01-13 15:07:00,14.6,-4.3,30.36,SSW,199,0.0,2.0,42,0.00,,---,0.00,VWS V14.01,2013-01-13 22:07:00,
2013-01-13 15:12:00,14.8,-4.1,30.36,SSW,198,2.0,3.0,42,0.00,,---,0.00,VWS V14.01,2013-01-13 22:12:00,
2013-01-13 15:17:00,14.9,-3.5,30.36,South,191,0.0,2.0,43,0.00,,---,0.00,VWS V14.01,2013-01-13 22:17:00,
2013-01-13 15:22:00,15.4,-4.1,30.36,South,191,0.0,3.0,41,0.00,,---,0.00,VWS V14.01,2013-01-13 22:22:00,
2013-01-13 15:27:00,15.3,-3.7,30.36,South,183,0.0,2.0,42,0.00,,---,0.00,VWS V14.01,2013-01-13 22:27:00,
2013-01-13 15:32:00,15.1,-4.3,30.36,South,183,0.0,4.0,41,0.00,,---,0.00,VWS V14.01,2013-01-13 22:32:00,
2013-01-13 15:37:00,15.4,-5.1,30.36,South,182,0.0,6.0,39,0.00,,---,0.00,VWS V14.01,2013-01-13 22:37:00,
2013-01-13 15:42:00,15.9,-5.2,30.34,South,182,1.0,2.0,38,0.00,,---,0.00,VWS V14.01,2013-01-13 22:42:00,
2013-01-13 15:47:00,16.1,-3.4,30.34,South,178,0.0,4.0,41,0.00,,---,0.00,VWS V14.01,2013-01-13 22:47:00,
2013-01-13 15:52:00,16.0,-3.5,30.34,South,169,0.0,3.0,41,0.00,,---,0.00,VWS V14.01,2013-01-13 22:52:00,
2013-01-13 15:57:00,16.7,-2.9,30.35,South,169,0.0,1.0,41,0.00,,---,0.00,VWS V14.01,2013-01-13 22:57:00,
2013-01-13 16:03:00,17.0,-2.6,30.34,South,169,0.0,1.0,41,0.00,,---,0.00,VWS V14.01,2013-01-13 23:03:00,
2013-01-13 16:08:00,16.8,-2.3,30.31,South,169,1.0,5.0,42,0.00,,---,0.00,VWS V14.01,2013-01-13 23:08:00,
2013-01-13 16:13:00,16.0,-2.5,30.31,SSE,168,0.0,5.0,43,0.00,,---,0.00,VWS V14.01,2013-01-13 23:13:00,
2013-01-13 16:18:00,15.2,-3.3,30.33,SSE,168,0.0,3.0,43,0.00,,---,0.00,VWS V14.01,2013-01-13 23:18:00,
2013-01-13 16:23:00,14.6,-2.4,30.33,SSE,168,1.0,1.0,46,0.00,,---,0.00,VWS V14.01,2013-01-13 23:23:00,
2013-01-13 16:28:00,14.3,-2.7,30.33,SSE,168,0.0,1.0,46,0.00,,---,0.00,VWS V14.01,2013-01-13 23:28:00,
2013-01-13 16:33:00,14.0,-2.5,30.33,SSE,168,0.0,1.0,47,0.00,,---,0.00,VWS V14.01,2013-01-13 23:33:00,
2013-01-13 16:38:00,13.7,-2.3,30.33,SSE,168,0.0,1.0,48,0.00,,---,0.00,VWS V14.01,2013-01-13 23:38:00,
2013-01-13 16:43:00,13.4,-2.2,30.33,SSE,168,0.0,3.0,49,0.00,,---,0.00,VWS V14.01,2013-01-13 23:43:00,
2013-01-13 16:48:00,13.2,-2.0,30.36,SSE,168,0.0,1.0,50,0.00,,---,0.00,VWS V14.01,2013-01-13 23:48:00,
2013-01-13 16:53:00,13.2,-2.0,30.36,SSE,168,0.0,0.0,50,0.00,,---,0.00,VWS V14.01,2013-01-13 23:53:00,
2013-01-13 16:58:00,13.1,-2.0,30.36,SSE,168,0.0,3.0,50,0.00,,---,0.00,VWS V14.01,2013-01-13 23:58:00,
2013-01-13 17:03:00,13.1,-1.6,30.36,SSE,168,0.0,0.0,51,0.00,,---,0.00,VWS V14.01,2013-01-14 00:03:00,
2013-01-13 17:08:00,12.9,-1.4,30.40,SSE,168,0.0,1.0,52,0.00,,---,0.00,VWS V14.01,2013-01-14 00:08:00,
2013-01-13 17:13:00,12.8,-1.5,30.40,SSE,168,0.0,2.0,52,0.00,,---,0.00,VWS V14.01,2013-01-14 00:13:00,
2013-01-13 17:18:00,12.8,-1.5,30.40,SSE,168,0.0,1.0,52,0.00,,---,0.00,VWS V14.01,2013-01-14 00:18:00,
2013-01-13 17:23:00,12.7,-1.6,30.40,SSE,168,0.0,2.0,52,0.00,,---,0.00,VWS V14.01,2013-01-14 00:23:00,
2013-01-13 17:28:00,12.7,-1.2,30.40,SSE,168,0.0,1.0,53,0.00,,---,0.00,VWS V14.01,2013-01-14 00:28:00,
2013-01-13 17:33:00,12.6,-1.7,30.40,SSE,168,1.0,1.0,52,0.00,,---,0.00,VWS V14.01,2013-01-14 00:33:00,
2013-01-13 17:38:00,12.5,-1.4,30.40,SSE,168,0.0,4.0,53,0.00,,---,0.00,VWS V14.01,2013-01-14 00:38:00,
2013-01-13 17:43:00,12.4,-1.5,30.40,SSE,168,5.0,5.0,53,0.00,,---,0.00,VWS V14.01,2013-01-14 00:43:00,
2013-01-13 17:48:00,12.2,-1.3,30.41,South,169,1.0,6.0,54,0.00,,---,0.00,VWS V14.01,2013-01-14 00:48:00,
2013-01-13 17:53:00,12.1,-1.0,30.41,SSE,168,0.0,0.0,55,0.00,,---,0.00,VWS V14.01,2013-01-14 00:53:00,
2013-01-13 17:58:00,11.9,-1.1,30.41,SSE,168,0.0,0.0,55,0.00,,---,0.00,VWS V14.01,2013-01-14 00:58:00,
2013-01-13 18:03:00,11.3,-1.3,30.41,South,169,0.0,1.0,56,0.00,,---,0.00,VWS V14.01,2013-01-14 01:03:00,
2013-01-13 18:08:00,11.1,-0.8,30.44,South,170,1.0,9.0,58,0.00,,---,0.00,VWS V14.01,2013-01-14 01:08:00,
2013-01-13 18:13:00,11.0,-0.2,30.44,South,171,0.0,7.0,60,0.00,,---,0.00,VWS V14.01,2013-01-14 01:13:00,
2013-01-13 18:18:00,10.7,-0.1,30.44,South,170,0.0,0.0,61,0.00,,---,0.00,VWS V14.01,2013-01-14 01:18:00,
2013-01-13 18:23:00,10.4,0.0,30.45,South,171,0.0,1.0,62,0.00,,---,0.00,VWS V14.01,2013-01-14 01:23:00,
2013-01-13 18:28:00,10.1,0.0,30.45,South,171,0.0,2.0,63,0.00,,---,0.00,VWS V14.01,2013-01-14 01:28:00,
2013-01-13 18:33:00,9.9,-0.2,30.45,South,170,0.0,1.0,63,0.00,,---,0.00,VWS V14.01,2013-01-14 01:33:00,
2013-01-13 18:38:00,9.9,0.2,30.45,South,169,0.0,1.0,64,0.00,,---,0.00,VWS V14.01,2013-01-14 01:38:00,
2013-01-13 18:43:00,9.8,0.7,30.45,South,171,0.0,1.0,66,0.00,,---,0.00,VWS V14.01,2013-01-14 01:43:00,
2013-01-13 18:48:00,9.6,0.9,30.46,South,170,1.0,4.0,67,0.00,,---,0.00,VWS V14.01,2013-01-14 01:48:00,
2013-01-13 18:53:00,9.2,-0.2,30.48,South,170,0.0,2.0,65,0.00,,---,0.00,VWS V14.01,2013-01-14 01:53:00,
2013-01-13 18:58:00,8.7,-1.0,30.48,South,170,1.0,1.0,64,0.00,,---,0.00,VWS V14.01,2013-01-14 01:58:00,
2013-01-13 19:03:00,8.3,-1.0,30.49,South,170,0.0,0.0,65,0.00,,---,0.00,VWS V14.01,2013-01-14 02:03:00,
2013-01-13 19:08:00,8.2,-0.8,30.47,South,170,0.0,1.0,66,0.00,,---,0.00,VWS V14.01,2013-01-14 02:08:00,
2013-01-13 19:13:00,8.4,-0.3,30.47,South,169,1.0,3.0,67,0.00,,---,0.00,VWS V14.01,2013-01-14 02:13:00,
2013-01-13 19:18:00,8.2,-0.5,30.47,South,170,0.0,1.0,67,0.00,,---,0.00,VWS V14.01,2013-01-14 02:18:00,
2013-01-13 19:23:00,8.5,0.4,30.45,South,170,1.0,1.0,69,0.00,,---,0.00,VWS V14.01,2013-01-14 02:23:00,
2013-01-13 19:28:00,8.8,0.7,30.45,South,171,0.0,2.0,69,0.00,,---,0.00,VWS V14.01,2013-01-14 02:28:00,
2013-01-13 19:33:00,8.3,-0.1,30.45,South,169,0.0,6.0,68,0.00,,---,0.00,VWS V14.01,2013-01-14 02:33:00,
2013-01-13 19:38:00,7.4,-0.6,30.47,ENE,61,0.0,10.0,69,0.00,,---,0.00,VWS V14.01,2013-01-14 02:38:00,
2013-01-13 19:43:00,7.4,-0.3,30.47,ENE,61,0.0,4.0,70,0.00,,---,0.00,VWS V14.01,2013-01-14 02:43:00,
2013-01-13 19:48:00,7.5,0.1,30.47,ENE,61,0.0,0.0,71,0.00,,---,0.00,VWS V14.01,2013-01-14 02:48:00,
2013-01-13 19:53:00,7.9,0.8,30.47,ENE,61,0.0,1.0,72,0.00,,---,0.00,VWS V14.01,2013-01-14 02:53:00,
2013-01-13 19:58:00,8.3,1.5,30.47,ENE,61,0.0,0.0,73,0.00,,---,0.00,VWS V14.01,2013-01-14 02:58:00,
2013-01-13 20:03:00,8.7,1.8,30.45,ENE,60,1.0,2.0,73,0.00,,---,0.00,VWS V14.01,2013-01-14 03:03:00,
2013-01-13 20:08:00,8.1,1.0,30.37,ENE,61,3.0,5.0,72,0.00,,---,0.00,VWS V14.01,2013-01-14 03:08:00,
2013-01-13 20:13:00,7.6,0.8,30.37,ENE,58,2.0,4.0,73,0.00,,---,0.00,VWS V14.01,2013-01-14 03:13:00,
2013-01-13 20:18:00,7.6,1.1,30.37,NNW,340,0.0,9.0,74,0.00,,---,0.00,VWS V14.01,2013-01-14 03:18:00,
2013-01-13 20:23:00,7.4,0.9,30.39,NNW,340,1.0,1.0,74,0.00,,---,0.00,VWS V14.01,2013-01-14 03:23:00,
2013-01-13 20:28:00,7.0,0.8,30.39,NNW,347,2.0,6.0,75,0.00,,---,0.00,VWS V14.01,2013-01-14 03:28:00,
2013-01-13 20:33:00,6.8,0.6,30.39,NNW,347,0.0,1.0,75,0.00,,---,0.00,VWS V14.01,2013-01-14 03:33:00,
2013-01-13 20:38:00,6.7,0.8,30.39,North,351,4.0,7.0,76,0.00,,---,0.00,VWS V14.01,2013-01-14 03:38:00,
2013-01-13 20:43:00,6.5,0.6,30.39,North,355,0.0,5.0,76,0.00,,---,0.00,VWS V14.01,2013-01-14 03:43:00,
2013-01-13 20:48:00,6.5,0.6,30.39,North,355,0.0,2.0,76,0.00,,---,0.00,VWS V14.01,2013-01-14 03:48:00,
2013-01-13 20:53:00,6.5,0.8,30.40,North,355,0.0,1.0,77,0.00,,---,0.00,VWS V14.01,2013-01-14 03:53:00,
2013-01-13 20:58:00,6.5,0.8,30.40,North,355,1.0,6.0,77,0.00,,---,0.00,VWS V14.01,2013-01-14 03:58:00,
2013-01-13 21:03:00,6.4,0.7,30.40,North,355,0.0,4.0,77,0.00,,---,0.00,VWS V14.01,2013-01-14 04:03:00,
2013-01-13 21:08:00,6.4,0.7,30.34,North,355,0.0,6.0,77,0.00,,---,0.00,VWS V14.01,2013-01-14 04:08:00,
2013-01-13 21:13:00,6.3,0.6,30.34,North,355,1.0,4.0,77,0.00,,---,0.00,VWS V14.01,2013-01-14 04:13:00,
2013-01-13 21:18:00,6.3,0.9,30.34,North,350,0.0,4.0,78,0.00,,---,0.00,VWS V14.01,2013-01-14 04:18:00,
2013-01-13 21:23:00,6.3,0.9,30.34,North,351,1.0,2.0,78,0.00,,---,0.00,VWS V14.01,2013-01-14 04:23:00,
2013-01-13 21:28:00,6.2,0.8,30.34,North,355,4.0,4.0,78,0.00,,---,0.00,VWS V14.01,2013-01-14 04:28:00,
2013-01-13 21:33:00,6.2,0.8,30.34,North,355,0.0,3.0,78,0.00,,---,0.00,VWS V14.01,2013-01-14 04:33:00,
2013-01-13 21:38:00,6.3,0.9,30.34,North,351,0.0,2.0,78,0.00,,---,0.00,VWS V14.01,2013-01-14 04:38:00,